sensor_id;sensor_type;location;lat;lon;timestamp;P1;durP1;ratioP1;P2;durP2;ratioP2
18526;SDS011;9393;42.158;24.748;2023-07-30T00:02:55;12.65;;;8.80;;
18526;SDS011;9393;42.158;24.748;2023-07-30T00:05:59;15.98;;;8.55;;
18526;SDS011;9393;42.158;24.748;2023-07-30T00:09:02;15.20;;;8.07;;
18526;SDS011;9393;42.158;24.748;2023-07-30T00:12:07;12.85;;;7.80;;
18526;SDS011;9393;42.158;24.748;2023-07-30T00:15:12;13.18;;;7.75;;
18526;SDS011;9393;42.158;24.748;2023-07-30T00:18:17;15.15;;;6.80;;
18526;SDS011;9393;42.158;24.748;2023-07-30T00:21:21;10.35;;;6.10;;
18526;SDS011;9393;42.158;24.748;2023-07-30T00:24:24;10.52;;;6.40;;
18526;SDS011;9393;42.158;24.748;2023-07-30T00:27:29;9.27;;;6.30;;
18526;SDS011;9393;42.158;24.748;2023-07-30T00:30:32;11.20;;;6.55;;
18526;SDS011;9393;42.158;24.748;2023-07-30T00:33:38;8.68;;;4.88;;
18526;SDS011;9393;42.158;24.748;2023-07-30T00:36:41;9.70;;;4.93;;
18526;SDS011;9393;42.158;24.748;2023-07-30T00:39:45;10.73;;;4.80;;
18526;SDS011;9393;42.158;24.748;2023-07-30T00:42:49;7.45;;;5.18;;
18526;SDS011;9393;42.158;24.748;2023-07-30T00:45:52;8.43;;;4.60;;
18526;SDS011;9393;42.158;24.748;2023-07-30T00:48:58;6.10;;;4.03;;
18526;SDS011;9393;42.158;24.748;2023-07-30T00:52:02;6.88;;;4.47;;
18526;SDS011;9393;42.158;24.748;2023-07-30T00:55:07;5.97;;;4.20;;
18526;SDS011;9393;42.158;24.748;2023-07-30T00:58:12;9.82;;;4.85;;
18526;SDS011;9393;42.158;24.748;2023-07-30T01:01:16;8.27;;;5.18;;
18526;SDS011;9393;42.158;24.748;2023-07-30T01:04:23;9.05;;;5.63;;
18526;SDS011;9393;42.158;24.748;2023-07-30T01:07:27;10.10;;;6.00;;
18526;SDS011;9393;42.158;24.748;2023-07-30T01:10:32;11.40;;;5.20;;
18526;SDS011;9393;42.158;24.748;2023-07-30T01:13:37;11.00;;;5.22;;
18526;SDS011;9393;42.158;24.748;2023-07-30T01:16:42;7.80;;;5.47;;
18526;SDS011;9393;42.158;24.748;2023-07-30T01:19:47;8.55;;;5.60;;
18526;SDS011;9393;42.158;24.748;2023-07-30T01:22:53;10.98;;;6.03;;
18526;SDS011;9393;42.158;24.748;2023-07-30T01:25:59;12.57;;;5.50;;
18526;SDS011;9393;42.158;24.748;2023-07-30T01:29:07;9.95;;;5.30;;
18526;SDS011;9393;42.158;24.748;2023-07-30T01:32:16;8.48;;;6.07;;
18526;SDS011;9393;42.158;24.748;2023-07-30T01:35:27;8.93;;;5.85;;
18526;SDS011;9393;42.158;24.748;2023-07-30T01:38:34;10.30;;;5.85;;
18526;SDS011;9393;42.158;24.748;2023-07-30T01:41:38;6.35;;;4.47;;
18526;SDS011;9393;42.158;24.748;2023-07-30T01:44:42;8.65;;;4.68;;
18526;SDS011;9393;42.158;24.748;2023-07-30T01:47:46;6.85;;;4.38;;
18526;SDS011;9393;42.158;24.748;2023-07-30T01:50:50;6.57;;;4.25;;
18526;SDS011;9393;42.158;24.748;2023-07-30T01:53:55;6.10;;;3.80;;
18526;SDS011;9393;42.158;24.748;2023-07-30T01:56:59;9.10;;;4.65;;
18526;SDS011;9393;42.158;24.748;2023-07-30T02:00:03;21.77;;;12.57;;
18526;SDS011;9393;42.158;24.748;2023-07-30T02:03:08;27.27;;;18.23;;
18526;SDS011;9393;42.158;24.748;2023-07-30T02:06:12;20.75;;;15.93;;
18526;SDS011;9393;42.158;24.748;2023-07-30T02:09:17;22.00;;;15.15;;
18526;SDS011;9393;42.158;24.748;2023-07-30T02:12:21;17.35;;;10.95;;
18526;SDS011;9393;42.158;24.748;2023-07-30T02:15:24;16.15;;;7.95;;
18526;SDS011;9393;42.158;24.748;2023-07-30T02:18:28;15.98;;;7.50;;
18526;SDS011;9393;42.158;24.748;2023-07-30T02:21:32;9.30;;;6.57;;
18526;SDS011;9393;42.158;24.748;2023-07-30T02:24:43;12.18;;;6.95;;
18526;SDS011;9393;42.158;24.748;2023-07-30T02:27:46;13.35;;;6.57;;
18526;SDS011;9393;42.158;24.748;2023-07-30T02:30:50;10.95;;;6.53;;
18526;SDS011;9393;42.158;24.748;2023-07-30T02:33:54;15.05;;;6.80;;
18526;SDS011;9393;42.158;24.748;2023-07-30T02:36:57;8.88;;;5.88;;
18526;SDS011;9393;42.158;24.748;2023-07-30T02:40:03;13.60;;;6.28;;
18526;SDS011;9393;42.158;24.748;2023-07-30T02:43:07;9.93;;;6.40;;
18526;SDS011;9393;42.158;24.748;2023-07-30T02:46:11;13.38;;;6.60;;
18526;SDS011;9393;42.158;24.748;2023-07-30T02:49:15;12.25;;;5.60;;
18526;SDS011;9393;42.158;24.748;2023-07-30T02:52:19;14.18;;;5.65;;
18526;SDS011;9393;42.158;24.748;2023-07-30T02:55:24;13.18;;;5.10;;
18526;SDS011;9393;42.158;24.748;2023-07-30T02:58:28;10.57;;;4.43;;
18526;SDS011;9393;42.158;24.748;2023-07-30T03:01:33;8.05;;;4.68;;
18526;SDS011;9393;42.158;24.748;2023-07-30T03:04:38;12.32;;;4.57;;
18526;SDS011;9393;42.158;24.748;2023-07-30T03:07:42;7.68;;;4.15;;
18526;SDS011;9393;42.158;24.748;2023-07-30T03:10:47;11.10;;;4.00;;
18526;SDS011;9393;42.158;24.748;2023-07-30T03:13:51;9.77;;;4.47;;
18526;SDS011;9393;42.158;24.748;2023-07-30T03:16:54;8.90;;;4.05;;
18526;SDS011;9393;42.158;24.748;2023-07-30T03:19:58;10.95;;;3.95;;
18526;SDS011;9393;42.158;24.748;2023-07-30T03:23:02;12.15;;;4.78;;
18526;SDS011;9393;42.158;24.748;2023-07-30T03:26:08;12.27;;;4.25;;
18526;SDS011;9393;42.158;24.748;2023-07-30T03:29:11;14.05;;;4.20;;
18526;SDS011;9393;42.158;24.748;2023-07-30T03:32:15;14.65;;;4.75;;
18526;SDS011;9393;42.158;24.748;2023-07-30T03:35:19;12.13;;;4.70;;
18526;SDS011;9393;42.158;24.748;2023-07-30T03:38:23;8.25;;;4.18;;
18526;SDS011;9393;42.158;24.748;2023-07-30T03:41:28;9.65;;;4.60;;
18526;SDS011;9393;42.158;24.748;2023-07-30T03:44:32;9.63;;;4.05;;
18526;SDS011;9393;42.158;24.748;2023-07-30T03:47:35;10.90;;;4.43;;
18526;SDS011;9393;42.158;24.748;2023-07-30T03:50:39;8.13;;;3.67;;
18526;SDS011;9393;42.158;24.748;2023-07-30T03:53:43;5.32;;;3.60;;
18526;SDS011;9393;42.158;24.748;2023-07-30T03:56:48;7.72;;;3.60;;
18526;SDS011;9393;42.158;24.748;2023-07-30T03:59:52;5.82;;;3.53;;
18526;SDS011;9393;42.158;24.748;2023-07-30T04:02:56;5.18;;;3.50;;
18526;SDS011;9393;42.158;24.748;2023-07-30T04:05:59;5.93;;;3.10;;
18526;SDS011;9393;42.158;24.748;2023-07-30T04:09:03;7.90;;;3.33;;
18526;SDS011;9393;42.158;24.748;2023-07-30T04:12:09;4.13;;;3.30;;
18526;SDS011;9393;42.158;24.748;2023-07-30T04:15:12;5.57;;;3.00;;
18526;SDS011;9393;42.158;24.748;2023-07-30T04:18:17;4.68;;;3.08;;
18526;SDS011;9393;42.158;24.748;2023-07-30T04:21:21;4.35;;;2.92;;
18526;SDS011;9393;42.158;24.748;2023-07-30T04:24:25;9.32;;;3.30;;
18526;SDS011;9393;42.158;24.748;2023-07-30T04:27:30;7.60;;;3.88;;
18526;SDS011;9393;42.158;24.748;2023-07-30T04:30:36;9.20;;;3.47;;
18526;SDS011;9393;42.158;24.748;2023-07-30T04:33:40;5.00;;;3.50;;
18526;SDS011;9393;42.158;24.748;2023-07-30T04:36:43;4.63;;;3.92;;
18526;SDS011;9393;42.158;24.748;2023-07-30T04:39:47;10.23;;;4.15;;
18526;SDS011;9393;42.158;24.748;2023-07-30T04:42:53;5.63;;;4.15;;
18526;SDS011;9393;42.158;24.748;2023-07-30T04:45:56;8.50;;;4.68;;
18526;SDS011;9393;42.158;24.748;2023-07-30T04:49:01;10.68;;;4.40;;
18526;SDS011;9393;42.158;24.748;2023-07-30T04:52:06;6.57;;;3.90;;
18526;SDS011;9393;42.158;24.748;2023-07-30T04:55:10;7.95;;;3.55;;
18526;SDS011;9393;42.158;24.748;2023-07-30T04:58:15;8.35;;;4.40;;
18526;SDS011;9393;42.158;24.748;2023-07-30T05:01:19;11.57;;;4.30;;
18526;SDS011;9393;42.158;24.748;2023-07-30T05:04:23;7.60;;;4.50;;
18526;SDS011;9393;42.158;24.748;2023-07-30T05:07:27;6.22;;;4.43;;
18526;SDS011;9393;42.158;24.748;2023-07-30T05:10:30;8.07;;;4.35;;
18526;SDS011;9393;42.158;24.748;2023-07-30T05:13:36;9.80;;;4.43;;
18526;SDS011;9393;42.158;24.748;2023-07-30T05:16:40;8.68;;;4.47;;
18526;SDS011;9393;42.158;24.748;2023-07-30T05:19:44;7.80;;;4.57;;
18526;SDS011;9393;42.158;24.748;2023-07-30T05:22:48;9.82;;;4.25;;
18526;SDS011;9393;42.158;24.748;2023-07-30T05:25:55;15.50;;;4.13;;
18526;SDS011;9393;42.158;24.748;2023-07-30T05:29:00;9.45;;;3.75;;
18526;SDS011;9393;42.158;24.748;2023-07-30T05:32:05;8.68;;;3.42;;
18526;SDS011;9393;42.158;24.748;2023-07-30T05:35:10;7.95;;;3.70;;
18526;SDS011;9393;42.158;24.748;2023-07-30T05:38:14;8.45;;;4.13;;
18526;SDS011;9393;42.158;24.748;2023-07-30T05:41:18;14.32;;;4.40;;
18526;SDS011;9393;42.158;24.748;2023-07-30T05:44:24;10.18;;;4.15;;
18526;SDS011;9393;42.158;24.748;2023-07-30T05:47:28;6.82;;;3.58;;
18526;SDS011;9393;42.158;24.748;2023-07-30T05:50:32;4.80;;;3.58;;
18526;SDS011;9393;42.158;24.748;2023-07-30T05:53:36;7.07;;;3.75;;
18526;SDS011;9393;42.158;24.748;2023-07-30T05:56:40;7.65;;;4.03;;
18526;SDS011;9393;42.158;24.748;2023-07-30T05:59:45;7.97;;;3.70;;
18526;SDS011;9393;42.158;24.748;2023-07-30T06:02:49;8.25;;;3.50;;
18526;SDS011;9393;42.158;24.748;2023-07-30T06:05:53;11.80;;;3.90;;
18526;SDS011;9393;42.158;24.748;2023-07-30T06:08:57;6.43;;;4.00;;
18526;SDS011;9393;42.158;24.748;2023-07-30T06:12:01;8.13;;;4.03;;
18526;SDS011;9393;42.158;24.748;2023-07-30T06:15:08;17.02;;;4.80;;
18526;SDS011;9393;42.158;24.748;2023-07-30T06:18:12;3.95;;;3.15;;
18526;SDS011;9393;42.158;24.748;2023-07-30T06:21:16;7.43;;;3.85;;
18526;SDS011;9393;42.158;24.748;2023-07-30T06:24:20;7.38;;;3.78;;
18526;SDS011;9393;42.158;24.748;2023-07-30T06:27:24;4.57;;;3.33;;
18526;SDS011;9393;42.158;24.748;2023-07-30T06:30:30;7.43;;;3.55;;
18526;SDS011;9393;42.158;24.748;2023-07-30T06:33:34;9.32;;;3.58;;
18526;SDS011;9393;42.158;24.748;2023-07-30T06:36:39;9.77;;;3.17;;
18526;SDS011;9393;42.158;24.748;2023-07-30T06:39:43;7.20;;;3.10;;
18526;SDS011;9393;42.158;24.748;2023-07-30T06:42:47;8.60;;;3.00;;
18526;SDS011;9393;42.158;24.748;2023-07-30T06:45:53;5.55;;;3.40;;
18526;SDS011;9393;42.158;24.748;2023-07-30T06:48:57;5.93;;;3.10;;
18526;SDS011;9393;42.158;24.748;2023-07-30T06:52:01;5.53;;;3.08;;
18526;SDS011;9393;42.158;24.748;2023-07-30T06:55:05;6.85;;;3.13;;
18526;SDS011;9393;42.158;24.748;2023-07-30T06:58:09;7.75;;;3.30;;
18526;SDS011;9393;42.158;24.748;2023-07-30T07:01:15;6.45;;;3.38;;
18526;SDS011;9393;42.158;24.748;2023-07-30T07:04:19;4.65;;;3.20;;
18526;SDS011;9393;42.158;24.748;2023-07-30T07:07:23;8.88;;;3.72;;
18526;SDS011;9393;42.158;24.748;2023-07-30T07:10:27;5.13;;;3.00;;
18526;SDS011;9393;42.158;24.748;2023-07-30T07:13:31;5.00;;;2.95;;
18526;SDS011;9393;42.158;24.748;2023-07-30T07:16:36;7.60;;;3.53;;
18526;SDS011;9393;42.158;24.748;2023-07-30T07:19:40;5.95;;;3.15;;
18526;SDS011;9393;42.158;24.748;2023-07-30T07:22:44;5.43;;;3.22;;
18526;SDS011;9393;42.158;24.748;2023-07-30T07:25:50;6.90;;;3.15;;
18526;SDS011;9393;42.158;24.748;2023-07-30T07:28:55;5.60;;;2.90;;
18526;SDS011;9393;42.158;24.748;2023-07-30T07:32:00;4.90;;;3.70;;
18526;SDS011;9393;42.158;24.748;2023-07-30T07:35:05;5.78;;;3.28;;
18526;SDS011;9393;42.158;24.748;2023-07-30T07:38:09;3.47;;;3.10;;
18526;SDS011;9393;42.158;24.748;2023-07-30T07:41:14;5.00;;;3.13;;
18526;SDS011;9393;42.158;24.748;2023-07-30T07:44:18;8.43;;;3.30;;
18526;SDS011;9393;42.158;24.748;2023-07-30T07:47:25;6.00;;;3.13;;
18526;SDS011;9393;42.158;24.748;2023-07-30T07:50:29;3.78;;;3.20;;
18526;SDS011;9393;42.158;24.748;2023-07-30T07:53:33;4.32;;;3.25;;
18526;SDS011;9393;42.158;24.748;2023-07-30T07:56:36;4.70;;;3.25;;
18526;SDS011;9393;42.158;24.748;2023-07-30T07:59:40;5.97;;;3.00;;
18526;SDS011;9393;42.158;24.748;2023-07-30T08:02:48;8.13;;;3.78;;
18526;SDS011;9393;42.158;24.748;2023-07-30T08:05:52;6.88;;;3.58;;
18526;SDS011;9393;42.158;24.748;2023-07-30T08:08:56;4.70;;;3.30;;
18526;SDS011;9393;42.158;24.748;2023-07-30T08:12:01;8.93;;;3.47;;
18526;SDS011;9393;42.158;24.748;2023-07-30T08:15:05;6.18;;;3.35;;
18526;SDS011;9393;42.158;24.748;2023-07-30T08:18:11;5.72;;;3.10;;
18526;SDS011;9393;42.158;24.748;2023-07-30T08:21:15;9.93;;;3.15;;
18526;SDS011;9393;42.158;24.748;2023-07-30T08:24:19;4.60;;;3.15;;
18526;SDS011;9393;42.158;24.748;2023-07-30T08:27:23;8.80;;;3.30;;
18526;SDS011;9393;42.158;24.748;2023-07-30T08:30:30;6.75;;;2.97;;
18526;SDS011;9393;42.158;24.748;2023-07-30T08:33:35;4.95;;;3.00;;
18526;SDS011;9393;42.158;24.748;2023-07-30T08:36:39;6.70;;;3.55;;
18526;SDS011;9393;42.158;24.748;2023-07-30T08:39:43;7.00;;;3.42;;
18526;SDS011;9393;42.158;24.748;2023-07-30T08:42:51;4.40;;;3.10;;
18526;SDS011;9393;42.158;24.748;2023-07-30T08:45:55;4.25;;;2.72;;
18526;SDS011;9393;42.158;24.748;2023-07-30T08:49:00;5.95;;;4.68;;
18526;SDS011;9393;42.158;24.748;2023-07-30T08:52:06;6.13;;;3.33;;
18526;SDS011;9393;42.158;24.748;2023-07-30T08:55:12;3.92;;;2.83;;
18526;SDS011;9393;42.158;24.748;2023-07-30T08:58:16;4.22;;;2.60;;
18526;SDS011;9393;42.158;24.748;2023-07-30T09:01:21;4.90;;;2.88;;
18526;SDS011;9393;42.158;24.748;2023-07-30T09:04:27;3.50;;;2.92;;
18526;SDS011;9393;42.158;24.748;2023-07-30T09:07:39;4.35;;;2.78;;
18526;SDS011;9393;42.158;24.748;2023-07-30T09:10:43;4.35;;;2.88;;
18526;SDS011;9393;42.158;24.748;2023-07-30T09:13:47;3.75;;;2.50;;
18526;SDS011;9393;42.158;24.748;2023-07-30T09:16:56;6.57;;;2.95;;
18526;SDS011;9393;42.158;24.748;2023-07-30T09:20:02;4.07;;;2.70;;
18526;SDS011;9393;42.158;24.748;2023-07-30T09:23:07;2.92;;;2.60;;
18526;SDS011;9393;42.158;24.748;2023-07-30T09:26:13;8.20;;;3.45;;
18526;SDS011;9393;42.158;24.748;2023-07-30T09:29:17;3.33;;;2.83;;
18526;SDS011;9393;42.158;24.748;2023-07-30T09:32:25;6.45;;;3.13;;
18526;SDS011;9393;42.158;24.748;2023-07-30T09:35:32;4.03;;;2.88;;
18526;SDS011;9393;42.158;24.748;2023-07-30T09:38:38;10.52;;;3.55;;
18526;SDS011;9393;42.158;24.748;2023-07-30T09:41:42;4.43;;;3.15;;
18526;SDS011;9393;42.158;24.748;2023-07-30T09:44:47;4.90;;;3.40;;
18526;SDS011;9393;42.158;24.748;2023-07-30T09:47:52;5.65;;;3.25;;
18526;SDS011;9393;42.158;24.748;2023-07-30T09:51:00;7.45;;;3.47;;
18526;SDS011;9393;42.158;24.748;2023-07-30T09:54:06;5.07;;;2.90;;
18526;SDS011;9393;42.158;24.748;2023-07-30T09:57:11;8.13;;;3.25;;
18526;SDS011;9393;42.158;24.748;2023-07-30T10:00:15;4.63;;;3.20;;
18526;SDS011;9393;42.158;24.748;2023-07-30T10:03:19;6.72;;;3.30;;
18526;SDS011;9393;42.158;24.748;2023-07-30T10:06:25;5.63;;;3.22;;
18526;SDS011;9393;42.158;24.748;2023-07-30T10:09:35;7.45;;;3.10;;
18526;SDS011;9393;42.158;24.748;2023-07-30T10:12:45;6.70;;;3.35;;
18526;SDS011;9393;42.158;24.748;2023-07-30T10:15:50;8.50;;;3.47;;
18526;SDS011;9393;42.158;24.748;2023-07-30T10:18:55;6.78;;;2.72;;
18526;SDS011;9393;42.158;24.748;2023-07-30T10:25:26;4.57;;;2.90;;
18526;SDS011;9393;42.158;24.748;2023-07-30T10:28:32;3.83;;;2.80;;
18526;SDS011;9393;42.158;24.748;2023-07-30T10:31:38;6.47;;;3.63;;
18526;SDS011;9393;42.158;24.748;2023-07-30T10:34:44;6.65;;;3.50;;
18526;SDS011;9393;42.158;24.748;2023-07-30T10:37:51;9.25;;;3.55;;
18526;SDS011;9393;42.158;24.748;2023-07-30T10:41:02;4.00;;;3.00;;
18526;SDS011;9393;42.158;24.748;2023-07-30T10:44:08;7.70;;;3.30;;
18526;SDS011;9393;42.158;24.748;2023-07-30T10:47:22;4.15;;;3.10;;
18526;SDS011;9393;42.158;24.748;2023-07-30T10:50:38;5.40;;;2.80;;
18526;SDS011;9393;42.158;24.748;2023-07-30T10:53:43;4.88;;;2.50;;
18526;SDS011;9393;42.158;24.748;2023-07-30T10:56:47;4.15;;;2.80;;
18526;SDS011;9393;42.158;24.748;2023-07-30T10:59:51;6.32;;;3.17;;
18526;SDS011;9393;42.158;24.748;2023-07-30T11:02:58;4.03;;;2.97;;
18526;SDS011;9393;42.158;24.748;2023-07-30T11:06:02;3.00;;;2.58;;
18526;SDS011;9393;42.158;24.748;2023-07-30T11:09:17;4.20;;;2.50;;
18526;SDS011;9393;42.158;24.748;2023-07-30T11:12:21;4.25;;;2.40;;
18526;SDS011;9393;42.158;24.748;2023-07-30T11:15:25;3.78;;;2.42;;
18526;SDS011;9393;42.158;24.748;2023-07-30T11:18:30;3.20;;;2.30;;
18526;SDS011;9393;42.158;24.748;2023-07-30T11:21:44;5.15;;;2.60;;
18526;SDS011;9393;42.158;24.748;2023-07-30T11:24:49;3.80;;;2.42;;
18526;SDS011;9393;42.158;24.748;2023-07-30T11:27:55;5.00;;;2.53;;
18526;SDS011;9393;42.158;24.748;2023-07-30T11:30:59;2.80;;;2.47;;
18526;SDS011;9393;42.158;24.748;2023-07-30T11:34:05;2.88;;;2.38;;
18526;SDS011;9393;42.158;24.748;2023-07-30T11:37:09;4.47;;;2.72;;
18526;SDS011;9393;42.158;24.748;2023-07-30T11:40:15;4.97;;;2.75;;
18526;SDS011;9393;42.158;24.748;2023-07-30T11:43:19;5.03;;;3.33;;
18526;SDS011;9393;42.158;24.748;2023-07-30T11:46:24;5.70;;;3.63;;
18526;SDS011;9393;42.158;24.748;2023-07-30T11:49:28;2.90;;;2.58;;
18526;SDS011;9393;42.158;24.748;2023-07-30T11:52:31;2.85;;;2.55;;
18526;SDS011;9393;42.158;24.748;2023-07-30T11:55:40;4.72;;;2.65;;
18526;SDS011;9393;42.158;24.748;2023-07-30T11:58:45;2.67;;;2.42;;
18526;SDS011;9393;42.158;24.748;2023-07-30T12:01:50;4.57;;;2.90;;
18526;SDS011;9393;42.158;24.748;2023-07-30T12:04:54;7.38;;;2.47;;
18526;SDS011;9393;42.158;24.748;2023-07-30T12:08:13;6.57;;;2.95;;
18526;SDS011;9393;42.158;24.748;2023-07-30T12:11:20;4.43;;;2.60;;
18526;SDS011;9393;42.158;24.748;2023-07-30T12:14:25;3.13;;;2.42;;
18526;SDS011;9393;42.158;24.748;2023-07-30T12:17:33;2.92;;;2.58;;
18526;SDS011;9393;42.158;24.748;2023-07-30T12:20:37;3.67;;;2.80;;
18526;SDS011;9393;42.158;24.748;2023-07-30T12:23:41;4.38;;;2.38;;
18526;SDS011;9393;42.158;24.748;2023-07-30T12:26:46;3.65;;;2.90;;
18526;SDS011;9393;42.158;24.748;2023-07-30T12:29:56;4.20;;;2.60;;
18526;SDS011;9393;42.158;24.748;2023-07-30T12:33:00;7.03;;;3.95;;
18526;SDS011;9393;42.158;24.748;2023-07-30T12:36:04;3.58;;;2.85;;
18526;SDS011;9393;42.158;24.748;2023-07-30T12:39:08;5.57;;;2.90;;
18526;SDS011;9393;42.158;24.748;2023-07-30T12:42:13;3.42;;;2.90;;
18526;SDS011;9393;42.158;24.748;2023-07-30T12:45:17;3.17;;;2.55;;
18526;SDS011;9393;42.158;24.748;2023-07-30T12:48:21;4.07;;;2.78;;
18526;SDS011;9393;42.158;24.748;2023-07-30T12:51:25;3.47;;;2.83;;
18526;SDS011;9393;42.158;24.748;2023-07-30T12:54:30;2.72;;;2.53;;
18526;SDS011;9393;42.158;24.748;2023-07-30T12:57:35;2.95;;;2.60;;
18526;SDS011;9393;42.158;24.748;2023-07-30T13:00:39;4.60;;;2.80;;
18526;SDS011;9393;42.158;24.748;2023-07-30T13:03:43;5.05;;;2.80;;
18526;SDS011;9393;42.158;24.748;2023-07-30T13:06:48;3.15;;;2.88;;
18526;SDS011;9393;42.158;24.748;2023-07-30T13:10:01;3.45;;;2.65;;
18526;SDS011;9393;42.158;24.748;2023-07-30T13:13:08;3.17;;;2.88;;
18526;SDS011;9393;42.158;24.748;2023-07-30T13:16:12;3.50;;;2.67;;
18526;SDS011;9393;42.158;24.748;2023-07-30T13:19:16;3.28;;;2.97;;
18526;SDS011;9393;42.158;24.748;2023-07-30T13:22:20;5.38;;;2.83;;
18526;SDS011;9393;42.158;24.748;2023-07-30T13:25:39;4.03;;;2.95;;
18526;SDS011;9393;42.158;24.748;2023-07-30T13:28:44;4.18;;;3.78;;
18526;SDS011;9393;42.158;24.748;2023-07-30T13:31:48;3.58;;;3.22;;
18526;SDS011;9393;42.158;24.748;2023-07-30T13:34:52;7.60;;;3.33;;
18526;SDS011;9393;42.158;24.748;2023-07-30T13:37:56;41.95;;;10.18;;
18526;SDS011;9393;42.158;24.748;2023-07-30T13:41:00;5.97;;;3.40;;
18526;SDS011;9393;42.158;24.748;2023-07-30T13:44:05;4.85;;;3.55;;
18526;SDS011;9393;42.158;24.748;2023-07-30T13:47:09;4.55;;;3.20;;
18526;SDS011;9393;42.158;24.748;2023-07-30T13:50:16;5.28;;;2.85;;
18526;SDS011;9393;42.158;24.748;2023-07-30T13:53:19;3.33;;;3.03;;
18526;SDS011;9393;42.158;24.748;2023-07-30T13:56:23;4.78;;;3.10;;
18526;SDS011;9393;42.158;24.748;2023-07-30T13:59:29;4.22;;;3.17;;
18526;SDS011;9393;42.158;24.748;2023-07-30T14:02:33;5.88;;;3.15;;
18526;SDS011;9393;42.158;24.748;2023-07-30T14:05:38;5.88;;;3.05;;
18526;SDS011;9393;42.158;24.748;2023-07-30T14:08:42;5.25;;;3.42;;
18526;SDS011;9393;42.158;24.748;2023-07-30T14:11:46;3.47;;;2.88;;
18526;SDS011;9393;42.158;24.748;2023-07-30T14:14:52;3.72;;;2.75;;
18526;SDS011;9393;42.158;24.748;2023-07-30T14:17:55;4.90;;;2.67;;
18526;SDS011;9393;42.158;24.748;2023-07-30T14:20:59;4.82;;;3.20;;
18526;SDS011;9393;42.158;24.748;2023-07-30T14:24:04;4.10;;;2.90;;
18526;SDS011;9393;42.158;24.748;2023-07-30T14:27:08;3.35;;;2.45;;
18526;SDS011;9393;42.158;24.748;2023-07-30T14:30:13;3.05;;;2.75;;
18526;SDS011;9393;42.158;24.748;2023-07-30T14:33:17;3.25;;;2.85;;
18526;SDS011;9393;42.158;24.748;2023-07-30T14:36:22;4.35;;;2.80;;
18526;SDS011;9393;42.158;24.748;2023-07-30T14:39:26;3.47;;;2.88;;
18526;SDS011;9393;42.158;24.748;2023-07-30T14:42:30;4.35;;;2.65;;
18526;SDS011;9393;42.158;24.748;2023-07-30T14:45:35;4.80;;;2.90;;
18526;SDS011;9393;42.158;24.748;2023-07-30T14:48:39;3.35;;;2.60;;
18526;SDS011;9393;42.158;24.748;2023-07-30T14:51:45;2.75;;;2.53;;
18526;SDS011;9393;42.158;24.748;2023-07-30T14:54:49;3.10;;;2.65;;
18526;SDS011;9393;42.158;24.748;2023-07-30T14:57:54;3.05;;;2.75;;
18526;SDS011;9393;42.158;24.748;2023-07-30T15:00:59;3.65;;;2.95;;
18526;SDS011;9393;42.158;24.748;2023-07-30T15:04:03;2.75;;;2.53;;
18526;SDS011;9393;42.158;24.748;2023-07-30T15:07:08;3.70;;;2.90;;
18526;SDS011;9393;42.158;24.748;2023-07-30T15:10:12;3.70;;;2.65;;
18526;SDS011;9393;42.158;24.748;2023-07-30T15:13:18;4.93;;;3.20;;
18526;SDS011;9393;42.158;24.748;2023-07-30T15:16:25;3.70;;;2.38;;
18526;SDS011;9393;42.158;24.748;2023-07-30T15:19:29;4.22;;;2.33;;
18526;SDS011;9393;42.158;24.748;2023-07-30T15:22:33;3.13;;;2.60;;
18526;SDS011;9393;42.158;24.748;2023-07-30T15:25:37;6.53;;;3.08;;
18526;SDS011;9393;42.158;24.748;2023-07-30T15:28:41;4.72;;;2.40;;
18526;SDS011;9393;42.158;24.748;2023-07-30T15:31:47;6.30;;;3.03;;
18526;SDS011;9393;42.158;24.748;2023-07-30T15:34:52;5.55;;;3.05;;
18526;SDS011;9393;42.158;24.748;2023-07-30T15:37:56;3.10;;;2.80;;
18526;SDS011;9393;42.158;24.748;2023-07-30T15:41:00;3.03;;;2.78;;
18526;SDS011;9393;42.158;24.748;2023-07-30T15:44:04;3.08;;;2.75;;
18526;SDS011;9393;42.158;24.748;2023-07-30T15:47:10;9.50;;;5.90;;
18526;SDS011;9393;42.158;24.748;2023-07-30T15:50:15;10.40;;;6.35;;
18526;SDS011;9393;42.158;24.748;2023-07-30T15:53:19;6.03;;;4.25;;
18526;SDS011;9393;42.158;24.748;2023-07-30T15:56:25;6.78;;;4.95;;
18526;SDS011;9393;42.158;24.748;2023-07-30T15:59:30;13.55;;;7.90;;
18526;SDS011;9393;42.158;24.748;2023-07-30T16:02:35;3.78;;;3.22;;
18526;SDS011;9393;42.158;24.748;2023-07-30T16:05:45;3.58;;;2.80;;
18526;SDS011;9393;42.158;24.748;2023-07-30T16:08:53;3.28;;;2.80;;
18526;SDS011;9393;42.158;24.748;2023-07-30T16:11:57;4.60;;;3.60;;
18526;SDS011;9393;42.158;24.748;2023-07-30T16:15:01;5.50;;;3.47;;
18526;SDS011;9393;42.158;24.748;2023-07-30T16:18:06;4.35;;;3.38;;
18526;SDS011;9393;42.158;24.748;2023-07-30T16:21:10;6.82;;;3.05;;
18526;SDS011;9393;42.158;24.748;2023-07-30T16:24:14;3.35;;;2.92;;
18526;SDS011;9393;42.158;24.748;2023-07-30T16:27:32;4.93;;;2.97;;
18526;SDS011;9393;42.158;24.748;2023-07-30T16:30:36;3.22;;;2.90;;
18526;SDS011;9393;42.158;24.748;2023-07-30T16:33:41;3.88;;;3.08;;
18526;SDS011;9393;42.158;24.748;2023-07-30T16:36:45;3.30;;;2.95;;
18526;SDS011;9393;42.158;24.748;2023-07-30T16:39:51;3.15;;;2.85;;
18526;SDS011;9393;42.158;24.748;2023-07-30T16:42:56;3.65;;;3.35;;
18526;SDS011;9393;42.158;24.748;2023-07-30T16:46:00;3.22;;;2.92;;
18526;SDS011;9393;42.158;24.748;2023-07-30T16:49:06;3.22;;;2.90;;
18526;SDS011;9393;42.158;24.748;2023-07-30T16:52:11;4.55;;;3.50;;
18526;SDS011;9393;42.158;24.748;2023-07-30T16:55:18;4.05;;;3.53;;
18526;SDS011;9393;42.158;24.748;2023-07-30T16:58:22;5.13;;;3.47;;
18526;SDS011;9393;42.158;24.748;2023-07-30T17:01:26;9.90;;;5.63;;
18526;SDS011;9393;42.158;24.748;2023-07-30T17:04:31;7.57;;;4.88;;
18526;SDS011;9393;42.158;24.748;2023-07-30T17:07:35;7.13;;;6.43;;
18526;SDS011;9393;42.158;24.748;2023-07-30T17:10:39;5.57;;;3.90;;
18526;SDS011;9393;42.158;24.748;2023-07-30T17:13:43;3.63;;;3.30;;
18526;SDS011;9393;42.158;24.748;2023-07-30T17:16:47;8.68;;;4.53;;
18526;SDS011;9393;42.158;24.748;2023-07-30T17:19:53;8.02;;;5.50;;
18526;SDS011;9393;42.158;24.748;2023-07-30T17:23:01;11.43;;;6.93;;
18526;SDS011;9393;42.158;24.748;2023-07-30T17:26:05;11.18;;;7.70;;
18526;SDS011;9393;42.158;24.748;2023-07-30T17:29:09;7.93;;;6.38;;
18526;SDS011;9393;42.158;24.748;2023-07-30T17:32:13;12.38;;;7.32;;
18526;SDS011;9393;42.158;24.748;2023-07-30T17:35:19;19.67;;;10.43;;
18526;SDS011;9393;42.158;24.748;2023-07-30T17:38:23;12.60;;;9.02;;
18526;SDS011;9393;42.158;24.748;2023-07-30T17:41:27;11.80;;;7.93;;
18526;SDS011;9393;42.158;24.748;2023-07-30T17:44:31;11.40;;;9.23;;
18526;SDS011;9393;42.158;24.748;2023-07-30T17:47:35;15.98;;;8.68;;
18526;SDS011;9393;42.158;24.748;2023-07-30T17:50:40;10.15;;;6.75;;
18526;SDS011;9393;42.158;24.748;2023-07-30T17:53:44;5.80;;;4.47;;
18526;SDS011;9393;42.158;24.748;2023-07-30T17:56:52;8.48;;;3.88;;
18526;SDS011;9393;42.158;24.748;2023-07-30T17:59:56;4.72;;;3.55;;
18526;SDS011;9393;42.158;24.748;2023-07-30T18:02:59;8.25;;;3.10;;
18526;SDS011;9393;42.158;24.748;2023-07-30T18:06:05;5.20;;;3.58;;
18526;SDS011;9393;42.158;24.748;2023-07-30T18:09:09;5.55;;;3.30;;
18526;SDS011;9393;42.158;24.748;2023-07-30T18:12:13;4.40;;;3.15;;
18526;SDS011;9393;42.158;24.748;2023-07-30T18:15:17;5.13;;;2.90;;
18526;SDS011;9393;42.158;24.748;2023-07-30T18:18:21;3.55;;;2.80;;
18526;SDS011;9393;42.158;24.748;2023-07-30T18:21:27;5.43;;;3.17;;
18526;SDS011;9393;42.158;24.748;2023-07-30T18:24:30;5.60;;;3.17;;
18526;SDS011;9393;42.158;24.748;2023-07-30T18:27:34;6.43;;;3.13;;
18526;SDS011;9393;42.158;24.748;2023-07-30T18:30:38;3.45;;;3.15;;
18526;SDS011;9393;42.158;24.748;2023-07-30T18:33:42;10.35;;;3.20;;
18526;SDS011;9393;42.158;24.748;2023-07-30T18:36:47;4.50;;;3.50;;